createdAt,value
2022-12-25T00:04:01.087Z,7.03
2022-12-25T00:09:10.638Z,11.15
2022-12-25T00:14:17.352Z,9.40
2022-12-25T00:19:24.972Z,12.57
2022-12-25T00:24:34.335Z,12.87
2022-12-25T00:29:44.126Z,12.13
2022-12-25T00:34:52.298Z,12.23
2022-12-25T00:40:01.881Z,14.52
2022-12-25T00:45:10.682Z,12.83
2022-12-25T00:50:18.739Z,14.33
2022-12-25T00:55:28.137Z,10.50
2022-12-25T01:00:35.003Z,8.27
2022-12-25T01:05:41.564Z,11.73
2022-12-25T01:10:57.931Z,19.97
2022-12-25T01:16:09.823Z,12.90
2022-12-25T01:21:18.162Z,9.20
2022-12-25T01:26:29.320Z,15.23
2022-12-25T01:31:36.048Z,10.60
2022-12-25T01:36:42.571Z,12.25
2022-12-25T01:41:51.821Z,10.52
2022-12-25T01:46:58.662Z,8.75
2022-12-25T01:52:11.320Z,8.83
2022-12-25T01:57:23.034Z,16.15
2022-12-25T02:07:38.902Z,13.90
2022-12-25T02:12:49.062Z,9.82
2022-12-25T02:18:01.518Z,14.57
2022-12-25T02:23:39.817Z,8.70
2022-12-25T02:28:53.161Z,13.63
2022-12-25T02:34:08.888Z,9.82
2022-12-25T02:39:32.047Z,9.65
2022-12-25T02:44:53.704Z,9.82
2022-12-25T02:50:13.123Z,11.93
2022-12-25T02:55:34.411Z,9.37
2022-12-25T03:00:58.499Z,9.83
2022-12-25T03:06:20.045Z,10.60
2022-12-25T03:11:37.168Z,12.82
2022-12-25T03:16:54.912Z,8.18
2022-12-25T03:22:14.389Z,8.35
2022-12-25T03:27:21.251Z,14.52
2022-12-25T03:32:42.999Z,11.98
2022-12-25T03:38:13.828Z,10.10
2022-12-25T03:43:40.593Z,9.52
2022-12-25T03:49:06.987Z,13.48
2022-12-25T03:54:29.813Z,14.90
2022-12-25T03:59:51.033Z,15.70
2022-12-25T04:05:16.090Z,7.97
2022-12-25T04:10:40.073Z,11.13
2022-12-25T04:16:04.142Z,20.30
2022-12-25T04:21:31.543Z,13.80
2022-12-25T04:26:54.362Z,18.38
2022-12-25T04:32:18.221Z,12.30
2022-12-25T04:37:35.098Z,20.25
2022-12-25T04:42:42.706Z,19.23
2022-12-25T04:47:49.619Z,19.70
2022-12-25T04:52:59.039Z,17.83
2022-12-25T04:58:06.388Z,17.42
2022-12-25T05:03:13.763Z,19.38
2022-12-25T05:08:23.485Z,14.80
2022-12-25T05:13:30.847Z,15.52
2022-12-25T05:18:37.650Z,16.33
2022-12-25T05:23:52.148Z,20.70
2022-12-25T05:28:59.363Z,14.10
2022-12-25T05:34:06.099Z,12.27
2022-12-25T05:39:15.429Z,17.38
2022-12-25T05:44:22.437Z,19.00
2022-12-25T05:49:29.673Z,17.38
2022-12-25T05:54:45.366Z,21.75
2022-12-25T05:59:58.787Z,19.52
2022-12-25T06:05:13.980Z,17.42
2022-12-25T06:10:36.152Z,16.30
2022-12-25T06:15:51.998Z,11.63
2022-12-25T06:21:09.743Z,15.77
2022-12-25T06:26:29.916Z,17.35
2022-12-25T06:31:43.310Z,17.02
2022-12-25T06:36:59.741Z,16.88
2022-12-25T06:42:17.816Z,12.68
2022-12-25T06:47:32.919Z,13.85
2022-12-25T06:52:46.997Z,15.35
2022-12-25T06:58:05.164Z,13.88
2022-12-25T07:03:14.666Z,18.55
2022-12-25T07:08:24.762Z,13.80
2022-12-25T07:13:37.074Z,15.35
2022-12-25T07:18:46.251Z,11.65
2022-12-25T07:23:56.155Z,17.42
2022-12-25T07:29:07.161Z,12.70
2022-12-25T07:34:15.529Z,14.50
2022-12-25T07:39:26.077Z,14.75
2022-12-25T07:44:36.884Z,16.15
2022-12-25T07:49:45.564Z,11.90
2022-12-25T07:54:53.875Z,15.00
2022-12-25T08:00:05.863Z,13.48
2022-12-25T08:05:15.447Z,17.60
2022-12-25T08:10:24.604Z,13.20
2022-12-25T08:15:36.070Z,14.27
2022-12-25T08:20:44.628Z,11.43
2022-12-25T08:25:53.130Z,17.65
2022-12-25T11:14:01.822Z,13.15
2022-12-25T11:19:30.719Z,12.60
2022-12-25T11:24:38.203Z,10.95
2022-12-25T11:29:51.958Z,13.13
2022-12-25T11:35:00.594Z,11.40
2022-12-25T11:40:09.782Z,10.93
2022-12-25T11:45:23.644Z,11.57
2022-12-25T11:50:34.119Z,10.52
2022-12-25T11:55:44.684Z,9.82
2022-12-25T12:00:57.401Z,10.90
2022-12-25T12:06:10.085Z,11.85
2022-12-25T12:11:23.115Z,13.93
2022-12-25T12:16:34.745Z,9.18
2022-12-25T12:21:45.423Z,10.93
2022-12-25T12:27:05.655Z,9.48
2022-12-25T12:32:34.579Z,9.98
2022-12-25T12:37:43.876Z,11.02
2022-12-25T12:42:53.460Z,8.32
2022-12-25T12:48:07.894Z,8.15
2022-12-25T12:53:32.348Z,12.23
2022-12-25T12:58:41.777Z,6.78
2022-12-25T13:04:05.716Z,10.10
2022-12-25T13:09:23.610Z,7.78
2022-12-25T13:14:32.085Z,8.45
2022-12-25T13:19:43.829Z,5.45
2022-12-25T13:25:00.603Z,8.63
2022-12-25T13:30:18.463Z,6.93
2022-12-25T13:35:32.364Z,6.30
2022-12-25T13:41:00.720Z,6.75
2022-12-25T13:46:09.514Z,7.10
2022-12-25T13:51:22.177Z,7.25
2022-12-25T13:56:30.166Z,8.95
2022-12-25T14:01:37.962Z,8.95
2022-12-25T14:06:49.135Z,7.50
2022-12-25T14:11:58.642Z,7.93
2022-12-25T14:17:07.264Z,9.07
2022-12-25T14:22:25.801Z,6.43
2022-12-25T14:27:35.435Z,7.75
2022-12-25T14:32:48.033Z,9.95
2022-12-25T14:43:11.072Z,10.35
2022-12-25T14:48:25.856Z,9.35
2022-12-25T14:53:40.872Z,8.50
2022-12-25T14:58:53.971Z,9.95
2022-12-25T15:04:09.912Z,8.25
2022-12-25T15:09:22.098Z,8.15
2022-12-25T15:14:31.069Z,9.40
2022-12-25T15:19:42.226Z,9.20
2022-12-25T15:24:58.757Z,11.82
2022-12-25T15:30:12.281Z,10.50
2022-12-25T15:35:21.366Z,10.85
2022-12-25T15:40:32.473Z,11.80
2022-12-25T15:45:40.321Z,9.82
2022-12-25T15:50:48.611Z,13.35
2022-12-25T15:55:59.258Z,10.40
2022-12-25T16:01:07.227Z,10.20
2022-12-25T16:06:16.192Z,12.70
2022-12-25T16:11:27.260Z,17.98
2022-12-25T16:16:35.557Z,10.18
2022-12-25T16:21:46.072Z,10.55
2022-12-25T16:26:57.582Z,10.95
2022-12-25T16:32:10.248Z,8.00
2022-12-25T16:42:28.848Z,8.27
2022-12-25T16:47:36.949Z,7.07
2022-12-25T16:52:45.576Z,7.38
2022-12-25T16:57:56.157Z,8.38
2022-12-25T17:03:05.836Z,8.75
2022-12-25T17:08:14.239Z,8.88
2022-12-25T17:13:25.507Z,7.07
2022-12-25T17:18:33.493Z,9.35
2022-12-25T17:23:48.156Z,8.95
2022-12-25T17:29:05.650Z,8.13
2022-12-25T17:34:19.039Z,7.57
2022-12-25T17:39:30.491Z,7.50
2022-12-25T17:44:47.457Z,8.47
2022-12-25T17:50:01.098Z,7.35
2022-12-25T17:55:16.429Z,7.22
2022-12-25T18:00:30.476Z,6.47
2022-12-25T18:05:43.764Z,6.35
2022-12-25T18:10:56.645Z,7.85
2022-12-25T18:16:14.553Z,10.52
2022-12-25T18:21:26.507Z,11.30
2022-12-25T18:26:39.471Z,7.33
2022-12-25T18:31:57.102Z,6.65
2022-12-25T22:48:52.693Z,2.85
2022-12-25T22:54:05.254Z,2.15
2022-12-25T22:59:17.346Z,1.98
2022-12-25T23:04:33.051Z,2.67
2022-12-25T23:09:44.278Z,2.38
2022-12-25T23:14:52.568Z,3.20
2022-12-25T23:20:14.961Z,1.95
2022-12-25T23:25:37.529Z,2.40
2022-12-25T23:30:50.260Z,1.70
2022-12-25T23:36:03.814Z,2.35
2022-12-25T23:46:26.105Z,1.90
2022-12-25T23:51:41.973Z,2.03
2022-12-25T23:56:50.880Z,2.55
